EmailTwitter


Surface observations / United Kingdom / EGLL (03772)

Regions: Quebec | Canada | USA | Europe | France | UK | Elsewhere
Station
Display
Info & Location for EGLL (03772) | Help decoding METAR

Weather Conditions observed on 2018/05/26 at 19:20 UTC at LONDON/HEATHROW, UK (EGLL)

Temperature: 23.0 Celsius.

Dewpoint: 15.0 Celsius.

Relative Humidity: 61%

Humidex: 27.

Winds: Northeast at 20 km/h or 11 knots.

Mean Sea level Pressure: 101.70 kilopascals.

Horizontal visibility: 6.21 statute miles or 9.94 kilometers.

Coded METAR:

EGLL 261920Z AUTO 06011KT 9999 NCD 23/15 Q1017 NOSIG=